KHSB/HSB METAR and TAF weather

Enter ICAO airport designator
Station Type Date Time Source
KHSB METAR 2020/01/17 14:15 UTC NOAA

KHSB 171415Z AUTO 08009KT 10SM BKN120 M01/M04 A3067 RMK AO2 T10151041


Station Type Date Time Source
KHSB Decoded METAR 2020/01/17 14:15 UTC NOAA

Harrisburg, Harrisburg-Raleigh Airport, IL, United States (KHSB) 37-48-41N 088-32-57W
Jan 17, 2020 - 09:15 AM EST / 2020.01.17 1415 UTC
Wind: from the E (080 degrees) at 10 MPH (9 KT):0
Visibility: 10 mile(s):0
Sky conditions: mostly cloudy
Temperature: 29.3 F (-1.5 C)
Windchill: 21 F (-6 C):1
Dew Point: 24.6 F (-4.1 C)
Relative Humidity: 82%
Pressure (altimeter): 30.67 in. Hg (1038 hPa)
ob: KHSB 171415Z AUTO 08009KT 10SM BKN120 M01/M04 A3067 RMK AO2 T10151041
cycle: 14

Station Type Date Time Source
KHSB TAF UTC NOAA

Error!

Example: see airport list